Delta Billie — WDE8059 — position and weather

sailwx.info

Track history (hours):
 
Tides and Currents Weather Stations Pressure Air Temp Water Temp Dewpoint Dewpoint Depression Visibility Wind Speed Wind Dir Waves Ship Positions

Delta Billie

Owner: Baydelta Maritime, San Francicso, CA. More information available from US FCC via Universal Licensing System and Coast Guard Vessel Documentation Center.

Last reported at 2015-Jan-30 13:33 UTC. Time now 2015-Jan-30 14:05 UTC.
Position N 37°48' W 122°24'.

Length 30 m; draft 5.5 m.

Type: Towing. MMSI: 367401030.

Date/timePositionNaut miles runAvg speedWind from/ knotsBaromVisibWave heightAir tempDewpointWater temp
2015-Jan-30 13:33N 37°48' W 122°24'0 0.0
2015-Jan-30 12:33N 37°48' W 122°24'0 0.0
2015-Jan-30 11:33N 37°48' W 122°24'0 0.0
2015-Jan-30 10:33N 37°48' W 122°24'0 0.0
2015-Jan-30 09:33N 37°48' W 122°24'2 1.6
2015-Jan-30 08:33N 37°50' W 122°24'10 9.7
2015-Jan-30 07:31N 37°60' W 122°25'8 8.7
2015-Jan-30 06:33N 38°04' W 122°15'6 5.6
2015-Jan-30 05:33N 38°02' W 122°08'0 0.0
2015-Jan-30 04:33N 38°02' W 122°08'13 1.1
2015-Jan-29 16:32N 38°02' W 121°52'1 1.1
2015-Jan-29 15:31N 38°02' W 121°53'12 0.5
2015-Jan-28 17:26N 38°02' W 122°08'0 0.0
2015-Jan-28 02:09N 38°02' W 122°08'4 4.5
2015-Jan-28 01:21N 38°04' W 122°12'810.4
2015-Jan-28 00:33N 38°01' W 122°23'7 6.7
2015-Jan-27 23:33N 37°55' W 122°25'1 0.6
2015-Jan-27 22:33N 37°56' W 122°25'8 8.0
2015-Jan-27 21:33N 38°03' W 122°20'6 0.5
2015-Jan-27 11:06N 38°04' W 122°13'710.7
2015-Jan-27 10:25N 38°02' W 122°22'6 7.5
2015-Jan-27 09:33N 37°56' W 122°25'1 0.8
2015-Jan-27 08:34N 37°55' W 122°25'3 3.2
2015-Jan-27 07:33N 37°52' W 122°24'8 7.6
2015-Jan-27 06:33N 37°59' W 122°25'1110.7
2015-Jan-27 05:33N 38°04' W 122°13'5 0.2
2015-Jan-26 04:04N 38°03' W 122°06'1 0.5
2015-Jan-26 02:27N 38°02' W 122°07'1 1.0
2015-Jan-26 01:31N 38°02' W 122°08'0 0.0
2015-Jan-25 23:05N 38°02' W 122°08'0 0.0
2015-Jan-25 22:33N 38°02' W 122°08'0 0.0
2015-Jan-25 21:11N 38°02' W 122°08'0 0.0
2015-Jan-25 20:33N 38°02' W 122°08'0 0.0
2015-Jan-25 19:28N 38°02' W 122°08'0 0.0
2015-Jan-25 17:32N 38°02' W 122°08'0 0.0
2015-Jan-25 16:33N 38°02' W 122°08'0 0.0
2015-Jan-25 14:33N 38°02' W 122°08'2 2.2
2015-Jan-25 13:31N 38°03' W 122°05'2 2.5
2015-Jan-25 12:32N 38°02' W 122°08'0 0.0
2015-Jan-25 10:27N 38°02' W 122°08'0 0.1
2015-Jan-25 09:33N 38°02' W 122°08'2 1.8
2015-Jan-25 08:30N 38°03' W 122°11'8 8.4
2015-Jan-25 07:30N 38°02' W 122°21'9 9.0
2015-Jan-25 06:33N 37°55' W 122°27'7 6.6
2015-Jan-25 05:33N 37°49' W 122°29'1 1.3
2015-Jan-25 04:33N 37°49' W 122°31'3 3.4
2015-Jan-25 03:33N 37°51' W 122°27'1110.7
2015-Jan-25 02:33N 38°01' W 122°23'11 9.1
2015-Jan-25 01:20N 38°02' W 122°09'2 0.6
2015-Jan-24 21:22N 38°03' W 122°12'4 5.3
2015-Jan-24 20:31N 38°03' W 122°17'6 6.0
2015-Jan-24 19:27N 38°02' W 122°09'1 0.9
2015-Jan-24 18:23N 38°02' W 122°08'0 0.0
2015-Jan-24 17:33N 38°02' W 122°08'0 0.0
2015-Jan-24 16:30N 38°02' W 122°08'0 0.0
2015-Jan-24 15:10N 38°02' W 122°08'0 0.0
2015-Jan-24 14:32N 38°02' W 122°08'0 0.0
2015-Jan-24 13:33N 38°02' W 122°08'0 0.0
2015-Jan-24 12:33N 38°02' W 122°08'0 0.0
2015-Jan-24 11:33N 38°02' W 122°08'0 0.0
2015-Jan-24 10:33N 38°02' W 122°08'0 0.0
2015-Jan-24 09:33N 38°02' W 122°08'0 0.0
2015-Jan-24 08:33N 38°02' W 122°08'0 0.0
2015-Jan-24 07:33N 38°02' W 122°08'0 0.0
2015-Jan-24 06:33N 38°02' W 122°08'0 0.0
2015-Jan-24 05:33N 38°02' W 122°08'0 0.0
2015-Jan-24 04:33N 38°02' W 122°08'0 0.0
2015-Jan-24 03:33N 38°02' W 122°08'0 0.0
2015-Jan-23 23:33N 38°02' W 122°08'0 0.0
2015-Jan-23 22:31N 38°02' W 122°08'0 0.0
2015-Jan-23 21:33N 38°02' W 122°08'0 0.0
2015-Jan-23 20:33N 38°02' W 122°08'6 6.0
2015-Jan-23 19:33N 38°03' W 122°16'3 3.4
2015-Jan-23 18:33N 38°03' W 122°20'9 9.1
2015-Jan-23 17:33N 37°54' W 122°25'9 8.6
2015-Jan-23 16:33N 37°48' W 122°19'0 0.1
2015-Jan-23 15:33N 37°48' W 122°19'1 0.6
2015-Jan-23 14:33N 37°48' W 122°19'4 3.7
2015-Jan-23 13:33N 37°48' W 122°24'0 0.0
2015-Jan-23 12:33N 37°48' W 122°24'5 5.3
2015-Jan-23 11:33N 37°53' W 122°25'9 9.2
2015-Jan-23 10:33N 38°02' W 122°21'4 4.5
2015-Jan-23 09:33N 38°03' W 122°16'4 0.5
2015-Jan-23 02:04N 38°03' W 122°11'8 9.4
2015-Jan-23 01:10N 38°02' W 122°22'5 8.7
2015-Jan-23 00:33N 37°58' W 122°26'9 8.9
2015-Jan-22 23:33N 37°49' W 122°25'5 5.1
2015-Jan-22 22:33N 37°49' W 122°31'3 3.3
2015-Jan-22 21:33N 37°49' W 122°27'3 2.7
2015-Jan-22 20:33N 37°48' W 122°24'0 0.0
2015-Jan-22 19:33N 37°48' W 122°24'0 0.0
2015-Jan-22 18:23N 37°48' W 122°24'0 0.0
2015-Jan-22 17:33N 37°48' W 122°24'0 0.0
2015-Jan-22 16:33N 37°48' W 122°24'0 0.0
2015-Jan-22 15:33N 37°48' W 122°24'0 0.0
2015-Jan-22 14:33N 37°48' W 122°24'0 0.0
2015-Jan-22 13:33N 37°48' W 122°24'0 0.0
2015-Jan-22 12:33N 37°48' W 122°24'0 0.0
2015-Jan-22 11:33N 37°48' W 122°24'0 0.0
2015-Jan-22 10:33N 37°48' W 122°24'0 0.0
2015-Jan-22 09:33N 37°48' W 122°24'0 0.0
2015-Jan-22 08:33N 37°48' W 122°24'0 0.0
2015-Jan-22 07:33N 37°48' W 122°24'0 0.0
2015-Jan-22 06:33N 37°48' W 122°24'6 5.7
2015-Jan-22 05:33N 37°49' W 122°31'4 4.5
2015-Jan-22 04:33N 37°50' W 122°26'8 8.3
2015-Jan-22 03:34N 37°59' W 122°26'1110.2
2015-Jan-22 02:31N 38°04' W 122°14'5 4.5
2015-Jan-22 01:23N 38°02' W 122°08'1 0.1
2015-Jan-21 08:08N 38°02' W 122°09'811.3
2015-Jan-21 07:24N 38°03' W 122°20'910.3
2015-Jan-21 06:33N 37°55' W 122°25'1 0.5
2015-Jan-21 05:33N 37°56' W 122°25'4 4.0
2015-Jan-21 04:33N 37°52' W 122°24'3 3.5
2015-Jan-21 03:33N 37°48' W 122°24'0 0.0
2015-Jan-21 02:33N 37°48' W 122°24'0 0.0
2015-Jan-21 01:33N 37°48' W 122°24'0 0.0
2015-Jan-21 00:33N 37°48' W 122°24'0 0.0
2015-Jan-20 23:33N 37°48' W 122°24'0 0.0
2015-Jan-20 22:33N 37°48' W 122°24'0 0.0
2015-Jan-20 21:34N 37°48' W 122°24'0 0.0
2015-Jan-20 20:33N 37°48' W 122°24'0 0.0
2015-Jan-20 19:33N 37°48' W 122°24'0 0.0
2015-Jan-20 18:33N 37°48' W 122°24'0 0.0
2015-Jan-20 17:33N 37°48' W 122°24'6 6.4
2015-Jan-20 16:33N 37°54' W 122°25'1 1.0
2015-Jan-20 15:34N 37°55' W 122°25'1 1.4
2015-Jan-20 14:33N 37°54' W 122°25'2 1.6
2015-Jan-20 13:33N 37°56' W 122°25'  
Track history (hours):
 
Tides and Currents Weather Stations Pressure Air Temp Water Temp Dewpoint Dewpoint Depression Visibility Wind Speed Wind Dir Waves Ship Positions

Delta Billie

Owner: Baydelta Maritime, San Francicso, CA. More information available from US FCC via Universal Licensing System and Coast Guard Vessel Documentation Center.

Last reported at 2015-Jan-30 13:33 UTC. Time now 2015-Jan-30 14:05 UTC.
Position N 37°48' W 122°24'.

Length 30 m; draft 5.5 m.

Type: Towing. MMSI: 367401030.

Date/timePositionNaut miles runAvg speedWind from/ knotsBaromVisibWave heightAir tempDewpointWater temp
2015-Jan-30 13:33N 37°48' W 122°24'0 0.0
2015-Jan-30 12:33N 37°48' W 122°24'0 0.0
2015-Jan-30 11:33N 37°48' W 122°24'0 0.0
2015-Jan-30 10:33N 37°48' W 122°24'0 0.0
2015-Jan-30 09:33N 37°48' W 122°24'2 1.6
2015-Jan-30 08:33N 37°50' W 122°24'10 9.7
2015-Jan-30 07:31N 37°60' W 122°25'8 8.7
2015-Jan-30 06:33N 38°04' W 122°15'6 5.6
2015-Jan-30 05:33N 38°02' W 122°08'0 0.0
2015-Jan-30 04:33N 38°02' W 122°08'13 1.1
2015-Jan-29 16:32N 38°02' W 121°52'1 1.1
2015-Jan-29 15:31N 38°02' W 121°53'12 0.5
2015-Jan-28 17:26N 38°02' W 122°08'0 0.0
2015-Jan-28 02:09N 38°02' W 122°08'4 4.5
2015-Jan-28 01:21N 38°04' W 122°12'810.4
2015-Jan-28 00:33N 38°01' W 122°23'7 6.7
2015-Jan-27 23:33N 37°55' W 122°25'1 0.6
2015-Jan-27 22:33N 37°56' W 122°25'8 8.0
2015-Jan-27 21:33N 38°03' W 122°20'6 0.5
2015-Jan-27 11:06N 38°04' W 122°13'710.7
2015-Jan-27 10:25N 38°02' W 122°22'6 7.5
2015-Jan-27 09:33N 37°56' W 122°25'1 0.8
2015-Jan-27 08:34N 37°55' W 122°25'3 3.2
2015-Jan-27 07:33N 37°52' W 122°24'8 7.6
2015-Jan-27 06:33N 37°59' W 122°25'1110.7
2015-Jan-27 05:33N 38°04' W 122°13'5 0.2
2015-Jan-26 04:04N 38°03' W 122°06'1 0.5
2015-Jan-26 02:27N 38°02' W 122°07'1 1.0
2015-Jan-26 01:31N 38°02' W 122°08'0 0.0
2015-Jan-25 23:05N 38°02' W 122°08'0 0.0
2015-Jan-25 22:33N 38°02' W 122°08'0 0.0
2015-Jan-25 21:11N 38°02' W 122°08'0 0.0
2015-Jan-25 20:33N 38°02' W 122°08'0 0.0
2015-Jan-25 19:28N 38°02' W 122°08'0 0.0
2015-Jan-25 17:32N 38°02' W 122°08'0 0.0
2015-Jan-25 16:33N 38°02' W 122°08'0 0.0
2015-Jan-25 14:33N 38°02' W 122°08'2 2.2
2015-Jan-25 13:31N 38°03' W 122°05'2 2.5
2015-Jan-25 12:32N 38°02' W 122°08'0 0.0
2015-Jan-25 10:27N 38°02' W 122°08'0 0.1
2015-Jan-25 09:33N 38°02' W 122°08'2 1.8
2015-Jan-25 08:30N 38°03' W 122°11'8 8.4
2015-Jan-25 07:30N 38°02' W 122°21'9 9.0
2015-Jan-25 06:33N 37°55' W 122°27'7 6.6
2015-Jan-25 05:33N 37°49' W 122°29'1 1.3
2015-Jan-25 04:33N 37°49' W 122°31'3 3.4
2015-Jan-25 03:33N 37°51' W 122°27'1110.7
2015-Jan-25 02:33N 38°01' W 122°23'11 9.1
2015-Jan-25 01:20N 38°02' W 122°09'2 0.6
2015-Jan-24 21:22N 38°03' W 122°12'4 5.3
2015-Jan-24 20:31N 38°03' W 122°17'6 6.0
2015-Jan-24 19:27N 38°02' W 122°09'1 0.9
2015-Jan-24 18:23N 38°02' W 122°08'0 0.0
2015-Jan-24 17:33N 38°02' W 122°08'0 0.0
2015-Jan-24 16:30N 38°02' W 122°08'0 0.0
2015-Jan-24 15:10N 38°02' W 122°08'0 0.0
2015-Jan-24 14:32N 38°02' W 122°08'0 0.0
2015-Jan-24 13:33N 38°02' W 122°08'0 0.0
2015-Jan-24 12:33N 38°02' W 122°08'0 0.0
2015-Jan-24 11:33N 38°02' W 122°08'0 0.0
2015-Jan-24 10:33N 38°02' W 122°08'0 0.0
2015-Jan-24 09:33N 38°02' W 122°08'0 0.0
2015-Jan-24 08:33N 38°02' W 122°08'0 0.0
2015-Jan-24 07:33N 38°02' W 122°08'0 0.0
2015-Jan-24 06:33N 38°02' W 122°08'0 0.0
2015-Jan-24 05:33N 38°02' W 122°08'0 0.0
2015-Jan-24 04:33N 38°02' W 122°08'0 0.0
2015-Jan-24 03:33N 38°02' W 122°08'0 0.0
2015-Jan-23 23:33N 38°02' W 122°08'0 0.0
2015-Jan-23 22:31N 38°02' W 122°08'0 0.0
2015-Jan-23 21:33N 38°02' W 122°08'0 0.0
2015-Jan-23 20:33N 38°02' W 122°08'6 6.0
2015-Jan-23 19:33N 38°03' W 122°16'3 3.4
2015-Jan-23 18:33N 38°03' W 122°20'9 9.1
2015-Jan-23 17:33N 37°54' W 122°25'9 8.6
2015-Jan-23 16:33N 37°48' W 122°19'0 0.1
2015-Jan-23 15:33N 37°48' W 122°19'1 0.6
2015-Jan-23 14:33N 37°48' W 122°19'4 3.7
2015-Jan-23 13:33N 37°48' W 122°24'0 0.0
2015-Jan-23 12:33N 37°48' W 122°24'5 5.3
2015-Jan-23 11:33N 37°53' W 122°25'9 9.2
2015-Jan-23 10:33N 38°02' W 122°21'4 4.5
2015-Jan-23 09:33N 38°03' W 122°16'4 0.5
2015-Jan-23 02:04N 38°03' W 122°11'8 9.4
2015-Jan-23 01:10N 38°02' W 122°22'5 8.7
2015-Jan-23 00:33N 37°58' W 122°26'9 8.9
2015-Jan-22 23:33N 37°49' W 122°25'5 5.1
2015-Jan-22 22:33N 37°49' W 122°31'3 3.3
2015-Jan-22 21:33N 37°49' W 122°27'3 2.7
2015-Jan-22 20:33N 37°48' W 122°24'0 0.0
2015-Jan-22 19:33N 37°48' W 122°24'0 0.0
2015-Jan-22 18:23N 37°48' W 122°24'0 0.0
2015-Jan-22 17:33N 37°48' W 122°24'0 0.0
2015-Jan-22 16:33N 37°48' W 122°24'0 0.0
2015-Jan-22 15:33N 37°48' W 122°24'0 0.0
2015-Jan-22 14:33N 37°48' W 122°24'0 0.0
2015-Jan-22 13:33N 37°48' W 122°24'0 0.0
2015-Jan-22 12:33N 37°48' W 122°24'0 0.0
2015-Jan-22 11:33N 37°48' W 122°24'0 0.0
2015-Jan-22 10:33N 37°48' W 122°24'0 0.0
2015-Jan-22 09:33N 37°48' W 122°24'0 0.0
2015-Jan-22 08:33N 37°48' W 122°24'0 0.0
2015-Jan-22 07:33N 37°48' W 122°24'0 0.0
2015-Jan-22 06:33N 37°48' W 122°24'6 5.7
2015-Jan-22 05:33N 37°49' W 122°31'4 4.5
2015-Jan-22 04:33N 37°50' W 122°26'8 8.3
2015-Jan-22 03:34N 37°59' W 122°26'1110.2
2015-Jan-22 02:31N 38°04' W 122°14'5 4.5
2015-Jan-22 01:23N 38°02' W 122°08'1 0.1
2015-Jan-21 08:08N 38°02' W 122°09'811.3
2015-Jan-21 07:24N 38°03' W 122°20'910.3
2015-Jan-21 06:33N 37°55' W 122°25'1 0.5
2015-Jan-21 05:33N 37°56' W 122°25'4 4.0
2015-Jan-21 04:33N 37°52' W 122°24'3 3.5
2015-Jan-21 03:33N 37°48' W 122°24'0 0.0
2015-Jan-21 02:33N 37°48' W 122°24'0 0.0
2015-Jan-21 01:33N 37°48' W 122°24'0 0.0
2015-Jan-21 00:33N 37°48' W 122°24'0 0.0
2015-Jan-20 23:33N 37°48' W 122°24'0 0.0
2015-Jan-20 22:33N 37°48' W 122°24'0 0.0
2015-Jan-20 21:34N 37°48' W 122°24'0 0.0
2015-Jan-20 20:33N 37°48' W 122°24'0 0.0
2015-Jan-20 19:33N 37°48' W 122°24'0 0.0
2015-Jan-20 18:33N 37°48' W 122°24'0 0.0
2015-Jan-20 17:33N 37°48' W 122°24'6 6.4
2015-Jan-20 16:33N 37°54' W 122°25'1 1.0
2015-Jan-20 15:34N 37°55' W 122°25'1 1.4
2015-Jan-20 14:33N 37°54' W 122°25'2 1.6
2015-Jan-20 13:33N 37°56' W 122°25'  

Dump ship's entire track history